• Join FlightAware (Why Join?)
  • Login
  • US Flag 
05:59AM EDT


 

Airport Tracker/Info


-or-


 

Live Flight TrackerFlight Track Log ✈ SWA1034 ✈ 17-Mar-2014 ✈ KSTL - KDTW

Flight Track Log - Related Links

Times and Time Zones

All times are in EDT time to prevent confusion due to time zone crossing. See the SWA1034 flight status page for this flight to view local times or setup timezone preferences in your user account.

Time Position Orientation Groundspeed Altitude Reporting Facility
EDT Latitude Longitude Course Direction KTS MPH feet Rate Location/Type
09:14PM 38.7333 -90.3333 90° East 160 184 1,700  Level Gateway (St. Louis) TRACON
09:15PM 38.7333 -90.2667 90° East 220 253 4,000 2,520 Climbing Gateway (St. Louis) TRACON
09:16PM 38.7333 -90.1833 90° East 244 281 6,500 2,520 Climbing Gateway (St. Louis) TRACON
09:17PM 38.7333 -90.0667 90° East 297 342 9,300 2,100 Climbing Gateway (St. Louis) TRACON
09:18PM 38.7500 -89.9503 80° East 313 360 11,300 2,100 Climbing Kansas City Center
09:19PM 38.7622 -89.8233 83° East 356 410 13,900 2,460 Climbing Kansas City Center
09:20PM 38.7750 -89.6914 83° East 370 426 16,400 2,280 Climbing Kansas City Center
09:21PM 38.7881 -89.5550 83° East 384 442 18,700 1,920 Climbing Kansas City Center
09:22PM 38.8047 -89.4131 81° East 401 461 20,400 1,980 Climbing Kansas City Center
09:23PM 38.8272 -89.2364 81° East 417 480 22,800 1,860 Climbing Kansas City Center
09:24PM 38.8461 -89.0836 81° East 431 496 24,300 1,080 Climbing Kansas City Center
09:25PM 38.8669 -88.9264 80° East 444 511 25,100 840 Climbing Kansas City Center
09:26PM 38.8889 -88.7644 80° East 457 526 26,100 1,140 Climbing Kansas City Center
09:27PM 38.9081 -88.5900 82° East 460 529 27,500 1,380 Climbing Kansas City Center
09:28PM 38.9350 -88.4236 78° East 468 539 29,000 1,680 Climbing Kansas City Center
09:29PM 38.9883 -88.2500 68° East 468 539 31,100 1,560 Climbing Kansas City Center
09:30PM 39.0244 -88.1142 71° East 457 526 32,200 1,020 Climbing Kansas City Center
09:31PM 39.0569 -87.9914 71° East 460 529 33,000 420 Climbing Indianapolis Center
09:32PM 39.1003 -87.8328 71° East 461 531 33,000  Level Indianapolis Center
09:33PM 39.1450 -87.6733 70° East 465 535 33,000  Level Indianapolis Center
09:34PM 39.1953 -87.4842 71° East 467 537 33,000  Level Indianapolis Center
09:35PM 39.2386 -87.3261 70° East 467 537 33,000  Level Indianapolis Center
09:36PM 39.2808 -87.1706 71° East 467 537 33,000  Level Indianapolis Center
09:37PM 39.3225 -87.0147 71° East 463 533 33,000  Level Indianapolis Center
09:38PM 39.3639 -86.8594 71° East 463 533 33,000  Level Indianapolis Center
09:39PM 39.4100 -86.7097 68° East 457 526 33,000  Level Indianapolis Center
09:40PM 39.5039 -86.6133 38° Northeast 434 499 33,000  Level Indianapolis Center
09:41PM 39.5997 -86.5244 36° Northeast 427 491 33,000  Level Indianapolis Center
09:42PM 39.6972 -86.4314 36° Northeast 427 491 33,000  Level Indianapolis Center
09:43PM 39.8031 -86.3294 36° Northeast 431 496 33,000  Level Indianapolis Center
09:44PM 39.8992 -86.2394 36° Northeast 432 497 33,000  Level Indianapolis Center
09:45PM 39.9986 -86.1444 36° Northeast 436 502 33,000  Level Indianapolis Center
09:46PM 40.1183 -86.0300 36° Northeast 439 505 33,000  Level Indianapolis Center
09:47PM 40.1981 -85.9528 36° Northeast 445 512 33,000  Level Chicago Center
09:48PM 40.2989 -85.8556 36° Northeast 448 516 33,000  Level Chicago Center
09:49PM 40.3994 -85.7583 36° Northeast 451 519 33,000  Level Chicago Center
09:50PM 40.5189 -85.6414 37° Northeast 448 516 33,000  Level Chicago Center
09:51PM 40.6178 -85.5450 36° Northeast 445 512 33,000 -960 Level Chicago Center
09:52PM 40.7044 -85.4606 36° Northeast 442 509 31,100 -2,520 Descending Chicago Center
09:54PM 40.8203 -85.3461 37° Northeast 436 502 27,900 -2,700 Descending Chicago Center
09:55PM 40.9122 -85.2519 38° Northeast 424 488 25,600 -2,340 Descending Chicago Center
09:56PM 41.0008 -85.1647 37° Northeast 406 467 23,200 -2,040 Descending Chicago Center
09:57PM 41.0881 -85.0708 39° Northeast 404 465 21,400 -1,080 Descending Chicago Center
09:58PM 41.1769 -84.9750 39° Northeast 412 474 21,000 -240 Descending Chicago Center
09:59PM 41.2811 -84.8631 39° Northeast 406 467 21,000  Level Chicago Center
10:00PM 41.3678 -84.7706 39° Northeast 404 465 21,000  Level Chicago Center
10:01PM 41.4536 -84.6764 39° Northeast 402 463 21,000 -120 Level Chicago Center
10:02PM 41.5422 -84.5803 39° Northeast 411 473 20,800 -1,080 Descending Chicago Center
10:03PM 41.6267 -84.4878 39° Northeast 398 458 18,900 -2,100 Descending Cleveland Center
10:04PM 41.6928 -84.3811 50° Northeast 382 440 16,800 -2,100 Descending Cleveland Center
10:05PM 41.7350 -84.2753 62° Northeast 373 429 15,100 -2,040 Descending Cleveland Center
10:05PM 41.7422 -84.2553 64° Northeast 379 436 14,700 -1,980 Descending Cleveland Center
10:06PM 41.7808 -84.1564 62° Northeast 362 417 13,100 -1,980 Descending Cleveland Center
10:06PM 41.7875 -84.1372 65° Northeast 361 415 12,700 -1,020 Descending Cleveland Center
10:07PM 41.8317 -84.0267 62° Northeast 328 377 12,000 -720 Descending Cleveland Center
10:07PM 41.8339 -84.0256 20° North 345 397 12,000 -360 Level Cleveland Center
10:08PM 41.8772 -83.9353 57° Northeast 316 364 11,700 -540 Descending Cleveland Center
10:08PM 41.8817 -83.9269 54° Northeast 324 373 11,500 -1,260 Descending Cleveland Center
10:09PM 41.9139 -83.8214 68° East 310 357 10,100 -1,740 Descending Cleveland Center
10:10PM 41.9528 -83.7047 66° East 289 333 8,000 -2,040 Descending Cleveland Center
10:11PM 41.9803 -83.6247 65° Northeast 279 321 6,300 -1,980 Descending Cleveland Center
10:11PM 41.9867 -83.6092 61° Northeast 288 331 6,000 -1,800 Descending Cleveland Center
10:12PM 42.0308 -83.5419 48° Northeast 273 314 4,500 -1,560 Descending Cleveland Center
10:12PM 42.0367 -83.5331 49° Northeast 276 318 4,400 -720 Descending Cleveland Center
10:13PM 42.0761 -83.4725 49° Northeast 229 264 3,800 -840 Descending Cleveland Center
10:13PM 42.0806 -83.4656 49° Northeast 253 291 3,600 -840 Descending Cleveland Center
10:14PM 42.1297 -83.4400 21° North 204 235 2,800 -1,140 Descending Cleveland Center
10:15PM 42.1694 -83.4069 32° Northeast 137 158 1,400 -1,200 Descending Cleveland Center
10:15PM 42.1661 -83.4106 219° Southwest 171 197 1,600 -660 Climbing Cleveland Center
10:16PM 42.1992 -83.3858 29° Northeast 150 173 700 -900 Descending Cleveland Center
10:18PM 42.2000 -83.3500 North  Level FlightAware Approximate
10:25PM 42.2124 -83.3534 North  Level Estimated